地図

経路データ

SID SEASON NUMBER BASIN SUBBASIN NAME ISO_TIME NATURE LAT LON WMO_WIND WMO_PRES WMO_AGENCY TRACK_TYPE DIST2LAND LANDFALL IFLAG USA_AGENCY USA_ATCF_ID USA_LAT USA_LON USA_RECORD USA_STATUS USA_WIND USA_PRES USA_SSHS USA_R34_NE USA_R34_SE USA_R34_SW USA_R34_NW USA_R50_NE USA_R50_SE USA_R50_SW USA_R50_NW USA_R64_NE USA_R64_SE USA_R64_SW USA_R64_NW USA_POCI USA_ROCI USA_RMW USA_EYE TOKYO_LAT TOKYO_LON TOKYO_GRADE TOKYO_WIND TOKYO_PRES TOKYO_R50_DIR TOKYO_R50_LONG TOKYO_R50_SHORT TOKYO_R30_DIR TOKYO_R30_LONG TOKYO_R30_SHORT TOKYO_LAND CMA_LAT CMA_LON CMA_CAT CMA_WIND CMA_PRES HKO_LAT HKO_LON HKO_CAT HKO_WIND HKO_PRES NEWDELHI_LAT NEWDELHI_LON NEWDELHI_GRADE NEWDELHI_WIND NEWDELHI_PRES NEWDELHI_CI NEWDELHI_DP NEWDELHI_POCI REUNION_LAT REUNION_LON REUNION_TYPE REUNION_WIND REUNION_PRES REUNION_TNUM REUNION_CI REUNION_RMW REUNION_R34_NE REUNION_R34_SE REUNION_R34_SW REUNION_R34_NW REUNION_R50_NE REUNION_R50_SE REUNION_R50_SW REUNION_R50_NW REUNION_R64_NE REUNION_R64_SE REUNION_R64_SW REUNION_R64_NW BOM_LAT BOM_LON BOM_TYPE BOM_WIND BOM_PRES BOM_TNUM BOM_CI BOM_RMW BOM_R34_NE BOM_R34_SE BOM_R34_SW BOM_R34_NW BOM_R50_NE BOM_R50_SE BOM_R50_SW BOM_R50_NW BOM_R64_NE BOM_R64_SE BOM_R64_SW BOM_R64_NW BOM_ROCI BOM_POCI BOM_EYE BOM_POS_METHOD BOM_PRES_METHOD NADI_LAT NADI_LON NADI_CAT NADI_WIND NADI_PRES WELLINGTON_LAT WELLINGTON_LON WELLINGTON_WIND WELLINGTON_PRES DS824_LAT DS824_LON DS824_STAGE DS824_WIND DS824_PRES TD9636_LAT TD9636_LON TD9636_STAGE TD9636_WIND TD9636_PRES TD9635_LAT TD9635_LON TD9635_WIND TD9635_PRES TD9635_ROCI NEUMANN_LAT NEUMANN_LON NEUMANN_CLASS NEUMANN_WIND NEUMANN_PRES MLC_LAT MLC_LON MLC_CLASS MLC_WIND MLC_PRES USA_GUST BOM_GUST BOM_GUST_PER REUNION_GUST REUNION_GUST_PER USA_SEAHGT USA_SEARAD_NE USA_SEARAD_SE USA_SEARAD_SW USA_SEARAD_NW STORM_SPEED STORM_DIR
1962245N20252 1962 73 EP MM BERNICE 1962-09-02 00:00:00 TS 19.6000 -107.800 45 hurdat_epa main 236 236 O________OO___ hurdat_epa EP061962 19.6000 -107.800 TS 45 0 19.6000 -107.800 TC 45 19.6000 -107.800 2 11 305
1962245N20252 1962 73 EP MM BERNICE 1962-09-02 03:00:00 TS 19.9025 -108.254 main 277 274 P________PP___ EP061962 19.8978 -108.260 TS 45 0 19.8978 -108.260 TC 45 19.9211 -108.233 2 10 306
1962245N20252 1962 73 EP MM BERNICE 1962-09-02 06:00:00 TS 20.2067 -108.693 45 hurdat_epa main 313 277 O________OP___ hurdat_epa EP061962 20.2000 -108.700 TS 45 0 20.2000 -108.700 TC 45 20.2334 -108.663 2 10 307
1962245N20252 1962 73 EP MM BERNICE 1962-09-02 09:00:00 TS 20.5117 -109.104 main 277 236 P________PP___ EP061962 20.5074 -109.108 TS 45 0 20.5074 -109.108 TC 45 20.5290 -109.087 2 10 308
1962245N20252 1962 73 EP MM BERNICE 1962-09-02 12:00:00 TS 20.8000 -109.500 45 hurdat_epa main 236 212 O________OO___ hurdat_epa EP061962 20.8000 -109.500 TS 45 0 20.8000 -109.500 TC 45 20.8000 -109.500 2 9 306
1962245N20252 1962 73 EP MM BERNICE 1962-09-02 15:00:00 TS 21.0604 -109.906 main 201 180 P________PP___ EP061962 21.0650 -109.908 TS 45 0 21.0650 -109.908 TC 45 21.0422 -109.898 2 9 304
1962245N20252 1962 73 EP MM BERNICE 1962-09-02 18:00:00 TS 21.2929 -110.296 45 hurdat_epa main 181 168 O________OP___ hurdat_epa EP061962 21.3000 -110.300 TS 45 0 21.3000 -110.300 TC 45 21.2646 -110.281 2 8 302
1962245N20252 1962 73 EP MM BERNICE 1962-09-02 21:00:00 TS 21.4959 -110.656 main 172 162 P________PP___ EP061962 21.4999 -110.658 TS 45 0 21.4999 -110.658 TC 45 21.4798 -110.648 2 8 302
1962245N20252 1962 73 EP MM BERNICE 1962-09-03 00:00:00 TS 21.7000 -111.000 45 hurdat_epa main 169 166 O________OO___ hurdat_epa EP061962 21.7000 -111.000 TS 45 0 21.7000 -111.000 TC 45 21.7000 -111.000 2 8 305
1962245N20252 1962 73 EP MM BERNICE 1962-09-03 03:00:00 TS 21.9450 -111.359 main 182 175 P________PP___ EP061962 21.9425 -111.358 TS 45 0 21.9425 -111.358 TC 45 21.9549 -111.364 2 8 308
1962245N20252 1962 73 EP MM BERNICE 1962-09-03 06:00:00 TS 22.2030 -111.702 45 hurdat_epa main 191 191 O________OP___ hurdat_epa EP061962 22.2000 -111.700 TS 45 0 22.2000 -111.700 TC 45 22.2150 -111.710 2 8 311
1962245N20252 1962 73 EP MM BERNICE 1962-09-03 09:00:00 TS 22.4655 -112.017 main 196 192 P________PP___ EP061962 22.4649 -112.015 TS 45 0 22.4649 -112.015 TC 45 22.4675 -112.026 2 7 312
1962245N20252 1962 73 EP MM BERNICE 1962-09-03 12:00:00 TS 22.7000 -112.300 45 hurdat_epa main 198 196 O________OO___ hurdat_epa EP061962 22.7000 -112.300 TS 45 0 22.7000 -112.300 TC 45 22.7000 -112.300 2 7 308
1962245N20252 1962 73 EP MM BERNICE 1962-09-03 15:00:00 TS 22.8653 -112.573 main 196 191 P________PP___ EP061962 22.8575 -112.580 TS 45 0 22.8575 -112.580 TC 45 22.8963 -112.543 2 5 305
1962245N20252 1962 73 EP MM BERNICE 1962-09-03 18:00:00 TS 23.0144 -112.788 45 hurdat_epa main 196 183 O________OP___ hurdat_epa EP061962 23.0000 -112.800 TS 45 0 23.0000 -112.800 TC 45 23.0722 -112.740 2 5 316
1962245N20252 1962 73 EP MM BERNICE 1962-09-03 21:00:00 TS 23.2014 -112.923 main 183 171 P________PP___ EP061962 23.1924 -112.930 TS 45 0 23.1924 -112.930 TC 45 23.2370 -112.893 2 4 333
1962245N20252 1962 73 EP MM BERNICE 1962-09-04 00:00:00 TS 23.4000 -113.000 45 hurdat_epa main 171 159 O________OO___ hurdat_epa EP061962 23.4000 -113.000 TS 45 0 23.4000 -113.000 TC 45 23.4000 -113.000 2 4 342
1962245N20252 1962 73 EP MM BERNICE 1962-09-04 03:00:00 TS 23.6042 -113.067 main 159 142 P________PP___ EP061962 23.6075 -113.065 TS 45 0 23.6075 -113.065 TC 45 23.5911 -113.072 2 4 348
1962245N20252 1962 73 EP MM BERNICE 1962-09-04 06:00:00 TS 23.7960 -113.101 45 hurdat_epa main 142 127 O________OP___ hurdat_epa EP061962 23.8000 -113.100 TS 45 0 23.8000 -113.100 TC 45 23.7799 -113.103 2 4 354
1962245N20252 1962 73 EP MM BERNICE 1962-09-04 09:00:00 TS 23.9627 -113.107 main 127 120 P________PP___ EP061962 23.9650 -113.108 TS 45 0 23.9650 -113.108 TC 45 23.9537 -113.107 2 3 0
1962245N20252 1962 73 EP MM BERNICE 1962-09-04 12:00:00 TS 24.1000 -113.100 45 hurdat_epa main 120 113 O________OO___ hurdat_epa EP061962 24.1000 -113.100 TS 45 0 24.1000 -113.100 TC 45 24.1000 -113.100 2 2 0
1962245N20252 1962 73 EP MM BERNICE 1962-09-04 15:00:00 TS 24.2111 -113.101 main 113 106 P________PP___ EP061962 24.2150 -113.100 TS 45 0 24.2150 -113.100 TC 45 24.1956 -113.107 2 2 355
1962245N20252 1962 73 EP MM BERNICE 1962-09-04 18:00:00 TS 24.2930 -113.102 45 hurdat_epa main 106 106 O________OP___ hurdat_epa EP061962 24.3000 -113.100 TS 45 0 24.3000 -113.100 TC 45 24.2650 -113.108 2 1 12
1962245N20252 1962 73 EP MM BERNICE 1962-09-04 21:00:00 TS 24.3454 -113.101 main 106 101 P________PP___ EP061962 24.3500 -113.100 TS 45 0 24.3500 -113.100 TC 45 24.3269 -113.104 2 1 0
1962245N20252 1962 73 EP MM BERNICE 1962-09-05 00:00:00 TS 24.4000 -113.100 45 hurdat_epa main 101 96 O________OO___ hurdat_epa EP061962 24.4000 -113.100 TS 45 0 24.4000 -113.100 TC 45 24.4000 -113.100 2 1 4
1962245N20252 1962 73 EP MM BERNICE 1962-09-05 03:00:00 TS 24.4877 -113.100 main 96 93 P________PP___ EP061962 24.4850 -113.100 TS 45 0 24.4850 -113.100 TC 45 24.4984 -113.100 2 2 0
1962245N20252 1962 73 EP MM BERNICE 1962-09-05 06:00:00 TS 24.6025 -113.100 45 hurdat_epa main 93 91 O________OP___ hurdat_epa EP061962 24.6000 -113.100 TS 45 0 24.6000 -113.100 TC 45 24.6125 -113.100 2 3 5
1962245N20252 1962 73 EP MM BERNICE 1962-09-05 09:00:00 TS 24.7431 -113.100 main 91 90 P________PP___ EP061962 24.7425 -113.100 TS 45 0 24.7425 -113.100 TC 45 24.7453 -113.100 2 3 5
1962245N20252 1962 73 EP MM BERNICE 1962-09-05 12:00:00 TS 24.9000 -113.100 45 hurdat_epa main 91 91 O________OO___ hurdat_epa EP061962 24.9000 -113.100 TS 45 0 24.9000 -113.100 TC 45 24.9000 -113.100 2 3 4
1962245N20252 1962 73 EP MM BERNICE 1962-09-05 15:00:00 TS 25.0436 -113.100 main 93 93 P________PP___ EP061962 25.0350 -113.100 TS 45 0 25.0350 -113.100 TC 45 25.0781 -113.100 2 3 0
1962245N20252 1962 73 EP MM BERNICE 1962-09-05 18:00:00 TS 25.2118 -113.100 45 hurdat_epa main 100 100 O________OP___ hurdat_epa EP061962 25.2000 -113.100 TS 45 0 25.2000 -113.100 TC 45 25.2750 -113.100 2 4 0
1962245N20252 1962 73 EP MM BERNICE 1962-09-05 21:00:00 TS 25.4338 -113.100 main 100 78 P________PP___ EP061962 25.4275 -113.100 TS 45 0 25.4275 -113.100 TC 45 25.4844 -113.100 2 5 0
1962245N20252 1962 73 EP MM BERNICE 1962-09-06 00:00:00 TS 25.7000 -113.100 45 hurdat_epa main 78 52 O________OO___ hurdat_epa EP061962 25.7000 -113.100 TS 45 0 25.7000 -113.100 TC 45 25.7000 -113.100 2 5 2
1962245N20252 1962 73 EP MM BERNICE 1962-09-06 03:00:00 TS 25.9700 -113.093 main 52 29 P________P____ EP061962 25.9700 -113.093 TS 45 0 25.9700 -113.093 TC 45 2 6 1
1962245N20252 1962 73 EP MM BERNICE 1962-09-06 06:00:00 MX 26.3000 -113.100 45 hurdat_epa main 29 0 O________O____ hurdat_epa EP061962 26.3000 -113.100 TS 45 0 26.3000 -113.100 45 2 8 357
1962245N20252 1962 73 EP MM BERNICE 1962-09-06 09:00:00 MX 26.7225 -113.140 main 0 0 P________P____ EP061962 26.7225 -113.140 TS 45 0 26.7225 -113.140 45 2 9 355
1962245N20252 1962 73 EP MM BERNICE 1962-09-06 12:00:00 MX 27.2000 -113.200 45 hurdat_epa main 0 O________O____ hurdat_epa EP061962 27.2000 -113.200 TS 45 0 27.2000 -113.200 45 10 353

IBTrACS Databaseについて

本データベースは、米国NOAAが公開する1842年以降の世界の熱帯低気圧のベストトラックデータアーカイブInternational Best Track Archive for Climate Stewardship (IBTrACS)を、ウェブで閲覧しやすい形式に変換したものです。

最終更新日:2021-10-21